createdAt,value
2019-06-01T00:02:10.995Z,6.90
2019-06-01T00:07:13.661Z,6.47
2019-06-01T00:12:16.323Z,7.15
2019-06-01T00:17:18.987Z,7.30
2019-06-01T00:22:21.643Z,6.62
2019-06-01T00:27:24.309Z,7.60
2019-06-01T00:32:26.973Z,8.88
2019-06-01T00:37:29.657Z,7.55
2019-06-01T00:42:32.326Z,7.85
2019-06-01T00:47:34.990Z,6.60
2019-06-01T00:52:38.119Z,5.45
2019-06-01T00:57:40.838Z,8.93
2019-06-01T01:02:43.985Z,8.05
2019-06-01T01:07:46.843Z,5.17
2019-06-01T01:12:49.676Z,4.80
2019-06-01T01:17:52.393Z,6.00
2019-06-01T01:22:56.382Z,6.70
2019-06-01T01:27:59.194Z,6.50
2019-06-01T01:33:01.930Z,5.75
2019-06-01T01:38:04.669Z,5.90
2019-06-01T01:43:07.321Z,7.92
2019-06-01T01:48:09.963Z,4.75
2019-06-01T01:53:12.699Z,8.80
2019-06-01T01:58:15.457Z,5.78
2019-06-01T02:03:18.253Z,6.20
2019-06-01T02:08:20.904Z,5.42
2019-06-01T02:13:23.645Z,6.08
2019-06-01T02:18:26.382Z,6.45
2019-06-01T02:23:29.426Z,5.72
2019-06-01T02:28:32.090Z,4.42
2019-06-01T02:33:36.457Z,7.58
2019-06-01T02:38:39.111Z,5.95
2019-06-01T02:43:41.911Z,7.12
2019-06-01T02:48:44.567Z,7.55
2019-06-01T02:53:47.305Z,5.95
2019-06-01T02:58:50.053Z,6.17
2019-06-01T03:03:54.522Z,5.72
2019-06-01T03:08:59.768Z,5.83
2019-06-01T03:14:04.730Z,5.80
2019-06-01T03:19:08.050Z,5.58
2019-06-01T03:24:13.213Z,6.03
2019-06-01T03:29:18.917Z,6.28
2019-06-01T03:34:21.739Z,4.60
2019-06-01T03:39:24.567Z,6.15
2019-06-01T03:44:27.298Z,8.83
2019-06-01T03:49:42.723Z,5.50
2019-06-01T03:54:48.177Z,5.33
2019-06-01T03:59:49.854Z,6.12
2019-06-01T04:04:52.861Z,6.90
2019-06-01T04:09:55.602Z,7.28
2019-06-01T04:14:58.336Z,6.05
2019-06-01T04:20:02.056Z,4.87
2019-06-01T04:25:06.023Z,6.95
2019-06-01T04:30:09.408Z,5.15
2019-06-01T04:35:13.223Z,6.45
2019-06-01T04:40:16.087Z,5.97
2019-06-01T04:45:18.874Z,7.08
2019-06-01T04:50:21.935Z,7.12
2019-06-01T04:55:24.591Z,7.80
2019-06-01T05:00:27.998Z,6.95
2019-06-01T05:05:30.866Z,5.97
2019-06-01T05:10:33.531Z,5.87
2019-06-01T05:15:36.556Z,8.50
2019-06-01T05:20:40.363Z,6.00
2019-06-01T05:25:43.020Z,4.87
2019-06-01T05:30:45.679Z,4.95
2019-06-01T05:35:48.418Z,5.62
2019-06-01T05:40:51.143Z,6.20
2019-06-01T05:45:54.175Z,4.60
2019-06-01T05:50:56.919Z,5.75
2019-06-01T05:55:59.579Z,6.78
2019-06-01T06:01:02.248Z,5.58
2019-06-01T06:06:04.914Z,5.60
2019-06-01T06:11:07.563Z,6.30
2019-06-01T06:16:11.566Z,8.03
2019-06-01T06:21:14.370Z,4.33
2019-06-01T06:26:18.665Z,4.87
2019-06-01T06:31:21.427Z,4.92
2019-06-01T06:36:24.152Z,4.12
2019-06-01T06:41:26.818Z,5.03
2019-06-01T06:46:29.549Z,6.28
2019-06-01T06:51:32.272Z,5.15
2019-06-01T06:56:35.034Z,4.75
2019-06-01T07:01:37.772Z,7.65
2019-06-01T07:06:40.511Z,5.10
2019-06-01T07:11:43.230Z,5.30
2019-06-01T07:16:45.952Z,3.72
2019-06-01T07:21:48.691Z,5.28
2019-06-01T07:26:51.398Z,4.87
2019-06-01T07:31:54.059Z,5.33
2019-06-01T07:36:56.753Z,5.87
2019-06-01T07:41:59.569Z,5.80
2019-06-01T07:47:02.402Z,6.47
2019-06-01T07:52:12.708Z,6.47
2019-06-01T07:57:09.604Z,4.15
2019-06-01T08:02:12.563Z,5.75
2019-06-01T08:07:16.260Z,7.20
2019-06-01T08:12:18.986Z,3.87
2019-06-01T08:17:22.109Z,3.70
2019-06-01T08:22:25.890Z,4.92
2019-06-01T08:27:28.825Z,4.00
2019-06-01T08:32:32.775Z,4.05
2019-06-01T08:37:35.715Z,4.25
2019-06-01T08:42:38.367Z,4.55
2019-06-01T08:47:41.025Z,4.28
2019-06-01T08:52:44.020Z,5.58
2019-06-01T08:57:46.746Z,4.08
2019-06-01T09:02:49.412Z,4.97
2019-06-01T09:07:52.140Z,3.60
2019-06-01T09:12:54.799Z,5.05
2019-06-01T09:17:57.490Z,2.33
2019-06-01T09:23:00.171Z,5.40
2019-06-01T09:28:03.299Z,5.20
2019-06-01T09:33:05.962Z,3.92
2019-06-01T09:38:08.698Z,2.62
2019-06-01T09:43:11.641Z,3.98
2019-06-01T09:48:14.315Z,7.12
2019-06-01T09:53:17.054Z,3.47
2019-06-01T09:58:19.816Z,4.28
2019-06-01T10:03:22.891Z,5.30
2019-06-01T10:08:25.565Z,4.03
2019-06-01T10:13:28.283Z,3.30
2019-06-01T10:18:30.972Z,5.40
2019-06-01T10:23:34.457Z,3.98
2019-06-01T10:28:37.832Z,3.65
2019-06-01T10:33:40.677Z,3.22
2019-06-01T10:38:43.337Z,2.45
2019-06-01T10:43:46.075Z,2.75
2019-06-01T10:48:48.743Z,2.95
2019-06-01T10:53:51.483Z,2.45
2019-06-01T10:59:00.031Z,2.62
2019-06-01T11:03:58.549Z,4.50
2019-06-01T11:09:01.340Z,3.20
2019-06-01T11:14:04.417Z,2.62
2019-06-01T11:19:07.159Z,3.70
2019-06-01T11:24:09.878Z,2.98
2019-06-01T11:29:12.547Z,3.02
2019-06-01T11:34:15.269Z,2.55
2019-06-01T11:39:17.991Z,3.15
2019-06-01T11:44:20.703Z,2.30
2019-06-01T11:49:23.356Z,3.27
2019-06-01T11:54:26.009Z,2.47
2019-06-01T11:59:28.743Z,4.05
2019-06-01T12:04:31.392Z,4.67
2019-06-01T12:09:34.055Z,3.17
2019-06-01T12:14:38.327Z,2.17
2019-06-01T12:19:41.118Z,2.20
2019-06-01T12:24:45.017Z,3.75
2019-06-01T12:29:49.045Z,2.80
2019-06-01T12:34:52.290Z,2.45
2019-06-01T12:39:54.950Z,3.72
2019-06-01T12:44:57.609Z,1.62
2019-06-01T12:50:00.265Z,2.10
2019-06-01T12:55:03.963Z,3.98
2019-06-01T13:00:08.471Z,2.72
2019-06-01T13:05:11.973Z,2.85
2019-06-01T13:10:14.733Z,5.00
2019-06-01T13:15:18.233Z,4.10
2019-06-01T13:20:20.973Z,5.72
2019-06-01T13:25:23.715Z,3.25
2019-06-01T13:30:26.374Z,2.17
2019-06-01T13:35:29.030Z,2.50
2019-06-01T13:40:31.689Z,2.60
2019-06-01T13:45:34.356Z,5.33
2019-06-01T13:50:37.031Z,1.72
2019-06-01T13:55:39.752Z,3.75
2019-06-01T14:00:42.417Z,4.35
2019-06-01T14:05:45.095Z,2.05
2019-06-01T14:10:49.056Z,2.95
2019-06-01T14:15:51.929Z,2.87
2019-06-01T14:20:55.794Z,2.60
2019-06-01T14:25:58.645Z,1.57
2019-06-01T14:31:01.384Z,3.10
2019-06-01T14:36:04.186Z,2.72
2019-06-01T14:41:06.899Z,2.15
2019-06-01T14:46:09.559Z,1.60
2019-06-01T14:51:12.230Z,3.52
2019-06-01T14:56:14.979Z,1.60
2019-06-01T15:01:31.783Z,2.65
2019-06-01T15:06:22.078Z,3.30
2019-06-01T15:11:24.731Z,2.72
2019-06-01T15:16:27.391Z,3.67
2019-06-01T15:21:30.063Z,3.87
2019-06-01T15:26:32.726Z,4.45
2019-06-01T15:31:35.408Z,3.00
2019-06-01T15:36:38.146Z,3.00
2019-06-01T15:41:40.890Z,3.67
2019-06-01T15:46:43.556Z,1.90
2019-06-01T15:51:46.211Z,2.02
2019-06-01T15:56:48.894Z,2.55
2019-06-01T16:01:52.877Z,2.35
2019-06-01T16:06:57.026Z,1.77
2019-06-01T16:11:59.941Z,1.82
2019-06-01T16:17:03.387Z,2.80
2019-06-01T16:22:07.006Z,4.30
2019-06-01T16:27:09.670Z,2.50
2019-06-01T16:32:12.329Z,2.58
2019-06-01T16:37:15.009Z,2.60
2019-06-01T16:42:17.904Z,5.35
2019-06-01T16:47:20.562Z,3.65
2019-06-01T16:52:23.244Z,2.70
2019-06-01T16:57:25.988Z,4.58
2019-06-01T17:02:28.764Z,2.12
2019-06-01T17:07:31.429Z,2.42
2019-06-01T17:12:34.090Z,4.40
2019-06-01T17:17:36.754Z,3.70
2019-06-01T17:22:39.417Z,2.17
2019-06-01T17:27:42.167Z,2.02
2019-06-01T17:32:44.865Z,4.65
2019-06-01T17:37:47.974Z,3.02
2019-06-01T17:42:50.710Z,3.00
2019-06-01T17:47:53.430Z,2.35
2019-06-01T17:52:56.175Z,4.78
2019-06-01T17:57:59.270Z,5.60
2019-06-01T18:03:03.595Z,4.28
2019-06-01T18:08:06.474Z,1.75
2019-06-01T18:13:10.497Z,3.90
2019-06-01T18:18:13.409Z,2.77
2019-06-01T18:23:16.216Z,3.95
2019-06-01T18:28:19.868Z,2.62
2019-06-01T18:33:23.031Z,3.40
2019-06-01T18:38:25.841Z,3.47
2019-06-01T18:43:28.512Z,2.72
2019-06-01T18:48:31.315Z,2.52
2019-06-01T18:53:33.997Z,2.40
2019-06-01T18:58:36.667Z,2.52
2019-06-01T19:03:39.329Z,3.40
2019-06-01T19:08:41.982Z,3.42
2019-06-01T19:13:44.652Z,3.65
2019-06-01T19:18:47.318Z,4.17
2019-06-01T19:23:49.973Z,2.77
2019-06-01T19:28:52.899Z,4.33
2019-06-01T19:33:55.795Z,4.50
2019-06-01T19:38:59.187Z,3.92
2019-06-01T19:44:01.863Z,3.10
2019-06-01T19:49:04.535Z,2.75
2019-06-01T19:54:07.192Z,4.42
2019-06-01T19:59:09.978Z,2.70
2019-06-01T20:04:12.804Z,5.75
2019-06-01T20:09:15.517Z,6.12
2019-06-01T20:14:19.175Z,6.90
2019-06-01T20:19:21.961Z,5.45
2019-06-01T20:24:24.674Z,6.95
2019-06-01T20:29:27.420Z,11.75
2019-06-01T20:34:30.082Z,9.45
2019-06-01T20:39:32.747Z,10.88
2019-06-01T20:44:35.483Z,11.70
2019-06-01T20:49:38.144Z,6.92
2019-06-01T20:54:40.821Z,6.60
2019-06-01T20:59:43.485Z,5.90
2019-06-01T21:04:46.213Z,8.93
2019-06-01T21:09:51.409Z,7.72
2019-06-01T21:14:54.137Z,5.70
2019-06-01T21:20:04.658Z,7.97
2019-06-01T21:25:07.428Z,7.50
2019-06-01T21:30:10.614Z,8.70
2019-06-01T21:35:13.411Z,6.12
2019-06-01T21:40:17.344Z,8.73
2019-06-01T21:45:21.686Z,8.03
2019-06-01T21:50:24.575Z,9.90
2019-06-01T21:55:27.328Z,7.08
2019-06-01T22:00:31.429Z,9.55
2019-06-01T22:05:34.239Z,8.28
2019-06-01T22:10:37.147Z,8.25
2019-06-01T22:15:40.408Z,6.10
2019-06-01T22:20:43.161Z,7.10
2019-06-01T22:25:47.457Z,7.92
2019-06-01T22:30:50.181Z,7.72
2019-06-01T22:35:55.022Z,7.12
2019-06-01T22:40:59.001Z,7.40
2019-06-01T22:46:24.430Z,6.92
2019-06-01T22:51:29.525Z,10.88
2019-06-01T22:56:32.461Z,8.75
2019-06-01T23:01:35.188Z,7.45
2019-06-01T23:06:37.939Z,7.28
2019-06-01T23:11:40.668Z,9.50
2019-06-01T23:16:43.350Z,6.67
2019-06-01T23:21:46.378Z,7.22
2019-06-01T23:26:49.494Z,7.28
2019-06-01T23:31:52.141Z,8.80
2019-06-01T23:36:54.805Z,5.90
2019-06-01T23:41:57.467Z,10.28
2019-06-01T23:47:00.130Z,10.38
2019-06-01T23:52:02.809Z,6.00
2019-06-01T23:57:05.660Z,7.85
